createdAt,value
2022-10-20T00:02:24.194Z,5.80
2022-10-20T00:04:51.173Z,4.70
2022-10-20T00:07:18.043Z,4.10
2022-10-20T00:09:45.126Z,3.90
2022-10-20T00:12:12.137Z,4.00
2022-10-20T00:14:39.094Z,4.60
2022-10-20T00:17:06.192Z,4.60
2022-10-20T00:19:33.187Z,4.30
2022-10-20T00:22:00.179Z,3.70
2022-10-20T00:24:27.041Z,3.70
2022-10-20T00:26:53.885Z,3.80
2022-10-20T00:29:20.790Z,3.50
2022-10-20T00:31:47.627Z,4.20
2022-10-20T00:34:14.539Z,4.40
2022-10-20T00:36:41.453Z,4.20
2022-10-20T00:39:08.430Z,4.00
2022-10-20T00:41:35.365Z,4.10
2022-10-20T00:44:23.870Z,3.80
2022-10-20T00:46:50.825Z,3.40
2022-10-20T00:49:22.531Z,3.40
2022-10-20T00:51:51.128Z,3.40
2022-10-20T00:54:23.273Z,3.30
2022-10-20T00:56:51.409Z,3.20
2022-10-20T00:59:20.809Z,3.40
2022-10-20T01:01:48.706Z,3.80
2022-10-20T01:04:16.716Z,4.10
2022-10-20T01:06:43.631Z,4.30
2022-10-20T01:09:11.103Z,3.90
2022-10-20T01:11:47.281Z,3.60
2022-10-20T01:14:33.370Z,3.60
2022-10-20T01:17:38.028Z,3.70
2022-10-20T01:20:13.886Z,4.10
2022-10-20T01:22:56.375Z,3.60
2022-10-20T01:25:48.517Z,3.20
2022-10-20T01:28:18.481Z,3.30
2022-10-20T01:30:51.815Z,3.30
2022-10-20T01:33:33.891Z,3.00
2022-10-20T01:36:12.023Z,3.50
2022-10-20T01:38:46.232Z,3.50
2022-10-20T01:41:37.932Z,3.20
2022-10-20T01:44:09.233Z,2.90
2022-10-20T01:46:39.409Z,3.00
2022-10-20T01:49:07.514Z,3.00
2022-10-20T01:51:34.809Z,2.80
2022-10-20T01:54:01.848Z,2.80
2022-10-20T01:56:53.465Z,2.10
2022-10-20T02:00:02.028Z,2.30
2022-10-20T02:03:06.526Z,2.60
2022-10-20T02:05:56.299Z,2.60
2022-10-20T02:08:47.244Z,2.50
2022-10-20T02:11:33.542Z,2.40
2022-10-20T02:14:02.488Z,2.70
2022-10-20T02:16:37.954Z,2.20
2022-10-20T02:19:08.291Z,2.10
2022-10-20T02:21:35.941Z,2.30
2022-10-20T02:24:06.669Z,2.50
2022-10-20T02:26:36.756Z,2.30
2022-10-20T02:31:33.098Z,2.40
2022-10-20T02:34:00.339Z,2.20
2022-10-20T02:36:28.995Z,2.20
2022-10-20T02:38:56.286Z,2.50
2022-10-20T02:41:23.193Z,2.20
2022-10-20T02:43:50.035Z,2.20
2022-10-20T02:46:17.209Z,2.50
2022-10-20T02:48:44.337Z,2.30
2022-10-20T02:51:11.412Z,2.10
2022-10-20T02:53:38.786Z,1.90
2022-10-20T02:56:06.094Z,2.20
2022-10-20T02:58:32.982Z,2.00
2022-10-20T03:01:00.082Z,2.30
2022-10-20T03:03:27.041Z,2.00
2022-10-20T03:05:53.979Z,2.00
2022-10-20T03:08:21.917Z,2.00
2022-10-20T03:10:48.999Z,2.40
2022-10-20T03:13:15.931Z,1.90
2022-10-20T03:15:42.898Z,2.10
2022-10-20T03:18:09.755Z,1.90
2022-10-20T03:20:36.740Z,1.90
2022-10-20T03:23:03.774Z,1.70
2022-10-20T03:25:32.126Z,1.90
2022-10-20T03:27:59.261Z,2.00
2022-10-20T03:30:27.146Z,2.20
2022-10-20T03:32:55.587Z,2.70
2022-10-20T03:35:23.047Z,2.30
2022-10-20T03:37:49.975Z,2.50
2022-10-20T03:40:17.157Z,2.40
2022-10-20T03:42:44.020Z,2.30
2022-10-20T03:45:12.699Z,1.90
2022-10-20T03:47:41.872Z,2.40
2022-10-20T03:50:09.126Z,2.40
2022-10-20T03:52:36.775Z,2.20
2022-10-20T03:55:04.258Z,2.30
2022-10-20T03:57:31.152Z,2.30
2022-10-20T03:59:58.052Z,2.70
2022-10-20T04:02:31.419Z,1.90
2022-10-20T04:04:58.499Z,2.00
2022-10-20T04:07:25.525Z,1.80
2022-10-20T04:09:52.438Z,1.40
2022-10-20T04:12:19.420Z,1.90
2022-10-20T04:14:47.115Z,1.60
2022-10-20T04:17:14.798Z,1.60
2022-10-20T04:19:41.950Z,1.90
2022-10-20T04:22:08.852Z,1.80
2022-10-20T04:24:35.905Z,2.10
2022-10-20T04:27:03.238Z,1.60
2022-10-20T04:29:30.288Z,2.10
2022-10-20T04:31:57.561Z,1.90
2022-10-20T04:34:24.663Z,1.80
2022-10-20T04:36:51.596Z,1.90
2022-10-20T04:39:18.559Z,1.50
2022-10-20T04:41:45.578Z,1.30
2022-10-20T04:44:12.916Z,1.30
2022-10-20T04:46:39.781Z,1.30
2022-10-20T04:49:06.654Z,1.40
2022-10-20T04:51:33.626Z,1.00
2022-10-20T04:54:00.660Z,1.10
2022-10-20T04:56:27.825Z,0.80
2022-10-20T04:58:56.661Z,1.00
2022-10-20T05:01:26.546Z,0.80
2022-10-20T05:06:31.782Z,1.30
2022-10-20T05:09:01.820Z,1.30
2022-10-20T05:11:30.570Z,1.20
2022-10-20T05:13:57.546Z,1.10
2022-10-20T05:16:25.235Z,1.50
2022-10-20T05:18:53.204Z,1.50
2022-10-20T05:21:26.097Z,1.60
2022-10-20T05:24:01.527Z,1.60
2022-10-20T05:26:33.846Z,1.40
2022-10-20T05:29:03.857Z,1.10
2022-10-20T05:33:58.466Z,1.40
2022-10-20T05:36:26.533Z,1.60
2022-10-20T05:38:54.963Z,1.30
2022-10-20T05:41:27.854Z,1.30
2022-10-20T05:43:58.237Z,1.70
2022-10-20T05:46:30.832Z,1.30
2022-10-20T05:49:00.270Z,1.90
2022-10-20T05:51:30.382Z,1.90
2022-10-20T05:53:58.902Z,1.90
2022-10-20T05:56:27.227Z,1.90
2022-10-20T05:58:54.606Z,1.70
2022-10-20T06:01:25.267Z,1.70
2022-10-20T06:03:52.222Z,1.70
2022-10-20T06:06:21.296Z,1.90
2022-10-20T06:08:50.288Z,2.10
2022-10-20T06:11:18.070Z,2.00
2022-10-20T06:13:47.284Z,1.70
2022-10-20T06:16:19.692Z,1.90
2022-10-20T06:18:46.798Z,2.00
2022-10-20T06:21:22.415Z,1.80
2022-10-20T06:23:50.564Z,2.00
2022-10-20T06:26:23.035Z,2.20
2022-10-20T06:28:58.615Z,2.20
2022-10-20T06:31:38.502Z,2.50
2022-10-20T06:34:13.148Z,2.60
2022-10-20T06:36:41.818Z,3.40
2022-10-20T06:39:12.628Z,3.80
2022-10-20T06:41:41.177Z,3.30
2022-10-20T06:44:08.128Z,3.70
2022-10-20T06:46:36.634Z,2.80
2022-10-20T06:49:05.994Z,2.80
2022-10-20T06:51:34.615Z,2.90
2022-10-20T06:54:02.136Z,2.50
2022-10-20T06:56:31.066Z,2.20
2022-10-20T06:58:59.723Z,2.30
2022-10-20T07:01:32.292Z,2.40
2022-10-20T07:04:02.510Z,2.50
2022-10-20T07:06:32.052Z,2.90
2022-10-20T07:09:00.395Z,2.60
2022-10-20T07:11:29.865Z,2.80
2022-10-20T07:14:01.281Z,2.90
2022-10-20T07:16:31.314Z,2.80
2022-10-20T07:18:59.893Z,3.10
2022-10-20T07:21:32.424Z,2.30
2022-10-20T07:24:04.566Z,2.30
2022-10-20T07:26:34.696Z,2.20
2022-10-20T07:29:03.526Z,2.20
2022-10-20T07:31:37.371Z,2.20
2022-10-20T07:34:23.451Z,2.50
2022-10-20T07:36:52.183Z,2.30
2022-10-20T07:39:19.253Z,2.20
2022-10-20T07:41:47.524Z,2.30
2022-10-20T07:44:14.920Z,2.30
2022-10-20T07:46:42.232Z,2.60
2022-10-20T07:51:56.630Z,2.70
2022-10-20T07:54:23.600Z,2.40
2022-10-20T07:56:50.586Z,2.20
2022-10-20T07:59:17.443Z,2.30
2022-10-20T08:01:44.576Z,2.30
2022-10-20T08:04:11.758Z,2.10
2022-10-20T08:06:39.232Z,4.50
2022-10-20T08:09:06.970Z,5.90
2022-10-20T08:11:34.444Z,3.40
2022-10-20T08:14:01.989Z,2.60
2022-10-20T08:16:42.916Z,2.90
2022-10-20T08:19:27.560Z,2.80
2022-10-20T08:21:54.564Z,1.90
2022-10-20T08:24:21.598Z,2.00
2022-10-20T08:26:48.455Z,2.20
2022-10-20T08:29:15.291Z,1.80
2022-10-20T08:31:43.550Z,1.80
2022-10-20T08:34:10.578Z,1.50
2022-10-20T08:36:37.643Z,1.80
2022-10-20T08:39:06.240Z,2.40
2022-10-20T08:42:02.807Z,1.90
2022-10-20T08:44:34.708Z,1.30
2022-10-20T08:47:04.758Z,1.80
2022-10-20T08:52:00.842Z,1.40
2022-10-20T08:54:28.037Z,1.30
2022-10-20T08:56:55.052Z,1.20
2022-10-20T08:59:27.037Z,1.50
2022-10-20T09:01:54.884Z,1.40
2022-10-20T09:04:26.571Z,1.40
2022-10-20T09:07:00.136Z,1.40
2022-10-20T09:09:29.966Z,1.50
2022-10-20T09:12:04.564Z,2.30
2022-10-20T09:14:35.564Z,1.70
2022-10-20T09:17:03.192Z,1.40
2022-10-20T09:19:30.658Z,2.10
2022-10-20T09:22:04.266Z,1.90
2022-10-20T09:24:31.874Z,1.40
2022-10-20T09:27:19.187Z,1.60
2022-10-20T09:29:46.224Z,1.40
2022-10-20T09:35:23.636Z,1.60
2022-10-20T09:37:56.167Z,1.90
2022-10-20T09:40:25.966Z,2.10
2022-10-20T09:43:01.914Z,2.10
2022-10-20T09:45:32.605Z,2.20
2022-10-20T09:48:05.084Z,2.20
2022-10-20T09:50:36.998Z,2.50
2022-10-20T09:53:15.192Z,2.50
2022-10-20T09:55:49.535Z,1.90
2022-10-20T09:58:38.040Z,2.00
2022-10-20T10:01:17.234Z,2.30
2022-10-20T10:03:51.239Z,2.40
2022-10-20T10:06:40.062Z,1.80
2022-10-20T10:09:37.276Z,1.80
2022-10-20T10:12:10.183Z,1.40
2022-10-20T10:14:38.677Z,1.00
2022-10-20T10:17:05.551Z,8.60
2022-10-20T10:19:34.075Z,3.70
2022-10-20T10:22:03.207Z,1.30
2022-10-20T10:24:47.989Z,1.50
2022-10-20T10:27:30.205Z,0.80
2022-10-20T10:30:27.397Z,1.20
2022-10-20T10:32:55.115Z,1.40
2022-10-20T10:35:31.272Z,1.40
2022-10-20T10:37:59.314Z,1.60
2022-10-20T10:40:34.607Z,2.80
2022-10-20T10:43:31.115Z,2.20
2022-10-20T10:46:00.728Z,2.00
2022-10-20T10:48:40.231Z,1.50
2022-10-20T10:51:07.105Z,2.00
2022-10-20T10:54:12.472Z,2.50
2022-10-20T10:56:50.496Z,1.70
2022-10-20T10:59:23.939Z,1.50
2022-10-20T11:02:12.461Z,1.30
2022-10-20T11:04:57.464Z,1.70
2022-10-20T11:07:36.713Z,1.60
2022-10-20T11:10:27.126Z,1.00
2022-10-20T11:13:28.912Z,1.60
2022-10-20T11:16:07.503Z,0.90
2022-10-20T11:19:01.723Z,1.40
2022-10-20T11:21:51.883Z,1.20
2022-10-20T11:24:49.677Z,1.00
2022-10-20T11:27:23.885Z,1.30
2022-10-20T11:29:53.064Z,1.30
2022-10-20T11:33:00.605Z,7.00
2022-10-20T11:35:38.806Z,14.50
2022-10-20T11:38:35.475Z,6.70
2022-10-20T11:41:18.557Z,5.60
2022-10-20T11:44:14.206Z,6.50
2022-10-20T11:47:07.275Z,11.30
2022-10-20T11:49:34.683Z,5.40
2022-10-20T11:52:22.603Z,4.40
2022-10-20T11:55:01.088Z,3.70
2022-10-20T11:57:49.537Z,3.50
2022-10-20T12:00:31.909Z,2.60
2022-10-20T12:03:24.631Z,1.90
2022-10-20T12:06:17.998Z,1.80
2022-10-20T12:09:05.826Z,2.00
2022-10-20T12:12:03.828Z,2.20
2022-10-20T12:14:40.979Z,3.90
2022-10-20T12:17:18.156Z,4.70
2022-10-20T12:19:50.125Z,3.10
2022-10-20T12:22:16.920Z,2.30
2022-10-20T12:25:03.670Z,2.00
2022-10-20T12:27:32.342Z,2.10
2022-10-20T12:30:04.907Z,3.10
2022-10-20T12:32:50.987Z,4.10
2022-10-20T12:35:17.858Z,2.60
2022-10-20T12:37:55.601Z,3.60
2022-10-20T12:40:33.330Z,4.00
2022-10-20T12:43:00.504Z,4.20
2022-10-20T12:45:39.086Z,4.70
2022-10-20T12:48:09.332Z,3.50
2022-10-20T12:50:45.304Z,3.80
2022-10-20T12:53:15.471Z,3.60
2022-10-20T12:58:17.395Z,3.20
2022-10-20T13:00:47.356Z,3.30
2022-10-20T13:03:39.715Z,3.00
2022-10-20T13:06:27.111Z,6.90
2022-10-20T13:09:03.332Z,15.50
2022-10-20T13:11:43.960Z,20.70
2022-10-20T13:14:26.569Z,26.30
2022-10-20T13:17:08.579Z,21.20
2022-10-20T13:19:43.486Z,45.30
2022-10-20T13:22:31.533Z,14.60
2022-10-20T13:25:00.093Z,10.30
2022-10-20T13:27:28.459Z,11.70
2022-10-20T13:29:55.536Z,14.40
2022-10-20T13:33:01.711Z,31.10
2022-10-20T13:35:44.414Z,67.90
2022-10-20T13:38:31.495Z,40.80
2022-10-20T13:41:11.057Z,20.90
2022-10-20T13:43:57.506Z,10.10
2022-10-20T13:46:37.814Z,10.30
2022-10-20T13:49:38.622Z,18.60
2022-10-20T13:52:13.963Z,13.60
2022-10-20T13:54:46.969Z,29.10
2022-10-20T13:57:45.960Z,16.10
2022-10-20T14:00:22.776Z,22.20
2022-10-20T14:03:17.216Z,33.20
2022-10-20T14:05:44.038Z,13.50
2022-10-20T14:08:14.699Z,13.70
2022-10-20T14:10:49.690Z,13.40
2022-10-20T14:13:20.670Z,11.90
2022-10-20T14:15:54.065Z,13.90
2022-10-20T14:18:27.668Z,10.70
2022-10-20T14:21:03.652Z,7.10
2022-10-20T14:23:37.443Z,6.90
2022-10-20T14:26:06.885Z,9.30
2022-10-20T14:28:35.865Z,20.80
2022-10-20T14:31:03.187Z,21.80
2022-10-20T14:33:33.193Z,20.60
2022-10-20T14:38:35.019Z,18.40
2022-10-20T14:41:02.742Z,25.30
2022-10-20T14:43:45.057Z,35.60
2022-10-20T14:46:22.945Z,28.50
2022-10-20T14:48:53.571Z,36.80
2022-10-20T14:51:37.750Z,28.50
2022-10-20T14:54:20.134Z,38.40
2022-10-20T14:56:50.353Z,39.10
2022-10-20T14:59:26.563Z,37.50
2022-10-20T15:02:01.488Z,32.70
2022-10-20T15:04:30.989Z,26.90
2022-10-20T15:07:12.525Z,36.90
2022-10-20T15:09:46.237Z,30.10
2022-10-20T15:12:20.878Z,46.90
2022-10-20T15:14:51.804Z,53.10
2022-10-20T15:17:36.690Z,50.30
2022-10-20T15:20:28.763Z,31.60
2022-10-20T15:23:02.147Z,20.70
2022-10-20T15:25:45.159Z,15.80
2022-10-20T15:28:42.613Z,14.60
2022-10-20T15:31:12.529Z,11.30
2022-10-20T15:36:15.327Z,11.30
2022-10-20T15:38:43.134Z,10.60
2022-10-20T15:41:15.003Z,9.20
2022-10-20T15:43:42.318Z,8.30
2022-10-20T15:46:12.986Z,7.80
2022-10-20T15:48:40.109Z,7.50
2022-10-20T15:51:25.873Z,6.10
2022-10-20T15:53:53.121Z,7.80
2022-10-20T15:56:20.494Z,8.00
2022-10-20T15:58:49.603Z,25.30
2022-10-20T16:01:17.893Z,31.50
2022-10-20T16:03:45.783Z,27.90
2022-10-20T16:06:14.451Z,18.20
2022-10-20T16:08:47.659Z,13.90
2022-10-20T16:11:17.514Z,10.90
2022-10-20T16:13:44.558Z,9.00
2022-10-20T16:16:17.620Z,6.20
2022-10-20T16:18:45.284Z,5.20
2022-10-20T16:21:12.672Z,4.20
2022-10-20T16:23:42.271Z,4.10
2022-10-20T16:26:13.553Z,3.70
2022-10-20T16:28:41.299Z,3.40
2022-10-20T16:31:13.607Z,3.60
2022-10-20T16:33:40.572Z,5.20
2022-10-20T16:36:09.704Z,4.80
2022-10-20T16:38:52.859Z,6.10
2022-10-20T16:41:19.575Z,12.40
2022-10-20T16:43:46.614Z,14.70
2022-10-20T16:46:15.452Z,19.70
2022-10-20T16:48:42.832Z,21.70
2022-10-20T16:51:12.024Z,19.50
2022-10-20T16:53:38.978Z,20.20
2022-10-20T16:56:06.957Z,17.70
2022-10-20T16:58:33.970Z,16.90
2022-10-20T17:01:05.967Z,16.40
2022-10-20T17:03:32.956Z,15.30
2022-10-20T17:06:04.508Z,12.60
2022-10-20T17:08:32.173Z,12.30
2022-10-20T17:11:05.186Z,12.60
2022-10-20T17:13:33.296Z,16.00
2022-10-20T17:16:15.392Z,17.30
2022-10-20T17:18:42.999Z,16.50
2022-10-20T17:21:11.035Z,13.80
2022-10-20T17:23:42.606Z,11.80
2022-10-20T17:26:15.988Z,10.40
2022-10-20T17:28:43.397Z,9.60
2022-10-20T17:31:12.952Z,7.80
2022-10-20T17:33:40.707Z,7.70
2022-10-20T17:36:08.680Z,9.80
2022-10-20T17:38:35.703Z,17.60
2022-10-20T17:41:07.378Z,19.20
2022-10-20T17:43:34.853Z,17.60
2022-10-20T17:46:07.549Z,14.00
2022-10-20T17:48:35.690Z,11.20
2022-10-20T17:51:16.167Z,11.50
2022-10-20T17:53:47.444Z,12.10
2022-10-20T17:56:23.407Z,14.80
2022-10-20T17:58:51.109Z,14.20
2022-10-20T18:01:22.804Z,13.20
2022-10-20T18:03:55.384Z,11.70
2022-10-20T18:06:24.247Z,12.40
2022-10-20T18:08:54.492Z,10.80
2022-10-20T18:11:25.390Z,12.10
2022-10-20T18:13:54.030Z,15.30
2022-10-20T18:16:20.963Z,13.30
2022-10-20T18:18:48.474Z,11.70
2022-10-20T18:21:17.627Z,10.70
2022-10-20T18:23:46.091Z,11.70
2022-10-20T18:26:15.824Z,12.00
2022-10-20T18:28:45.764Z,11.90
2022-10-20T18:31:17.629Z,12.30
2022-10-20T18:33:45.635Z,14.70
2022-10-20T18:36:14.664Z,10.40
2022-10-20T18:38:43.911Z,9.10
2022-10-20T18:41:14.790Z,7.70
2022-10-20T18:43:42.257Z,9.10
2022-10-20T18:46:09.741Z,9.60
2022-10-20T18:48:38.098Z,9.60
2022-10-20T18:51:06.449Z,8.90
2022-10-20T18:53:34.695Z,10.80
2022-10-20T18:56:01.598Z,9.60
2022-10-20T18:59:32.185Z,8.50
2022-10-20T19:02:02.287Z,7.10
2022-10-20T19:04:29.513Z,5.30
2022-10-20T19:06:56.559Z,4.90
2022-10-20T19:09:23.516Z,4.40
2022-10-20T19:14:22.333Z,5.60
2022-10-20T19:16:50.619Z,5.70
2022-10-20T19:19:17.463Z,5.60
2022-10-20T19:21:44.691Z,5.90
2022-10-20T19:24:16.035Z,5.40
2022-10-20T19:26:52.784Z,6.40
2022-10-20T19:29:29.871Z,5.70
2022-10-20T19:31:59.652Z,5.80
2022-10-20T19:34:32.591Z,5.60
2022-10-20T19:37:00.489Z,6.10
2022-10-20T19:39:31.514Z,7.30
2022-10-20T19:42:00.768Z,7.80
2022-10-20T19:44:28.393Z,8.30
2022-10-20T19:46:55.745Z,9.20
2022-10-20T19:49:23.998Z,9.00
2022-10-20T19:51:51.274Z,8.10
2022-10-20T19:54:18.773Z,7.00
2022-10-20T19:56:46.046Z,6.60
2022-10-20T19:59:13.378Z,6.50
2022-10-20T20:01:40.417Z,5.70
2022-10-20T20:04:07.642Z,6.00
2022-10-20T20:06:35.078Z,5.90
2022-10-20T20:09:05.348Z,5.60
2022-10-20T20:11:34.100Z,5.30
2022-10-20T20:14:13.367Z,5.00
2022-10-20T20:16:41.049Z,5.40
2022-10-20T20:19:08.627Z,4.90
2022-10-20T20:21:35.522Z,5.30
2022-10-20T20:24:03.794Z,5.30
2022-10-20T20:26:35.528Z,5.10
2022-10-20T20:29:03.370Z,5.30
2022-10-20T20:31:30.260Z,5.20
2022-10-20T20:33:57.336Z,5.20
2022-10-20T20:36:28.571Z,5.50
2022-10-20T20:38:58.115Z,5.10
2022-10-20T20:41:30.418Z,6.00
2022-10-20T20:44:01.004Z,6.20
2022-10-20T20:46:30.548Z,6.00
2022-10-20T20:48:57.521Z,6.10
2022-10-20T20:51:28.521Z,5.80
2022-10-20T20:53:55.565Z,6.30
2022-10-20T20:56:23.392Z,6.30
2022-10-20T20:58:55.255Z,6.60
2022-10-20T21:01:26.789Z,5.40
2022-10-20T21:03:55.609Z,5.50
2022-10-20T21:06:28.940Z,5.30
2022-10-20T21:09:01.010Z,5.20
2022-10-20T21:11:29.819Z,4.50
2022-10-20T21:13:58.462Z,4.90
2022-10-20T21:16:30.251Z,5.00
2022-10-20T21:19:04.564Z,4.80
2022-10-20T21:21:34.042Z,4.90
2022-10-20T21:24:02.762Z,5.20
2022-10-20T21:26:29.861Z,5.10
2022-10-20T21:28:57.573Z,4.90
2022-10-20T21:31:26.229Z,4.90
2022-10-20T21:33:55.616Z,5.10
2022-10-20T21:36:23.776Z,5.20
2022-10-20T21:38:51.822Z,5.40
2022-10-20T21:41:24.505Z,5.40
2022-10-20T21:43:54.136Z,5.10
2022-10-20T21:46:22.662Z,5.00
2022-10-20T21:48:53.010Z,4.90
2022-10-20T21:51:25.633Z,5.00
2022-10-20T21:53:57.279Z,5.00
2022-10-20T21:56:24.969Z,5.30
2022-10-20T21:58:53.031Z,5.30
2022-10-20T22:01:23.080Z,5.60
2022-10-20T22:06:19.526Z,5.30
2022-10-20T22:08:48.673Z,5.30
2022-10-20T22:11:18.508Z,5.40
2022-10-20T22:13:46.315Z,5.40
2022-10-20T22:16:17.293Z,6.10
2022-10-20T22:18:44.674Z,5.60
2022-10-20T22:21:17.079Z,5.60
2022-10-20T22:23:45.096Z,5.50
2022-10-20T22:26:12.280Z,5.70
2022-10-20T22:28:40.599Z,5.50
2022-10-20T22:31:07.693Z,5.60
2022-10-20T22:33:35.024Z,5.50
2022-10-20T22:36:03.222Z,5.40
2022-10-20T22:38:30.652Z,5.40
2022-10-20T22:41:02.243Z,5.10
2022-10-20T22:43:30.995Z,5.40
2022-10-20T22:45:58.017Z,5.40
2022-10-20T22:48:25.336Z,5.40
2022-10-20T22:50:52.221Z,5.30
2022-10-20T22:53:19.445Z,5.40
2022-10-20T22:55:46.372Z,5.10
2022-10-20T22:58:13.519Z,5.50
2022-10-20T23:00:41.668Z,5.60
2022-10-20T23:03:09.691Z,5.50
2022-10-20T23:05:37.064Z,5.40
2022-10-20T23:08:05.100Z,5.20
2022-10-20T23:10:32.514Z,5.50
2022-10-20T23:12:59.338Z,5.10
2022-10-20T23:15:26.889Z,6.20
2022-10-20T23:17:53.733Z,4.90
2022-10-20T23:20:20.549Z,5.70
2022-10-20T23:22:50.226Z,5.40
2022-10-20T23:25:17.229Z,5.70
2022-10-20T23:27:44.052Z,5.60
2022-10-20T23:30:10.914Z,5.10
2022-10-20T23:32:37.986Z,5.50
2022-10-20T23:35:05.278Z,5.50
2022-10-20T23:37:32.276Z,5.80
2022-10-20T23:39:59.148Z,5.70
2022-10-20T23:42:26.005Z,5.40
2022-10-20T23:44:52.875Z,5.40
2022-10-20T23:47:19.684Z,5.60
2022-10-20T23:49:46.584Z,5.60
2022-10-20T23:52:13.499Z,5.40
2022-10-20T23:54:40.346Z,5.40
2022-10-20T23:57:07.155Z,5.10
2022-10-20T23:59:33.981Z,5.50
